createdAt,value
2023-06-07T00:00:34.136Z,100426.44
2023-06-07T00:05:37.599Z,100430.59
2023-06-07T00:10:39.101Z,100431.78
2023-06-07T00:15:40.609Z,100432.84
2023-06-07T00:20:46.513Z,100429.41
2023-06-07T00:25:48.087Z,100422.56
2023-06-07T00:30:49.535Z,100429.66
2023-06-07T00:35:51.583Z,100426.00
2023-06-07T00:40:57.985Z,100426.13
2023-06-07T00:45:59.686Z,100422.56
2023-06-07T00:51:01.355Z,100426.69
2023-06-07T00:56:03.550Z,100416.97
2023-06-07T01:01:06.941Z,100426.59
2023-06-07T01:06:08.372Z,100421.97
2023-06-07T01:11:11.969Z,100418.06
2023-06-07T01:16:14.172Z,100411.16
2023-06-07T01:21:19.891Z,100412.59
2023-06-07T01:26:21.605Z,100418.41
2023-06-07T01:31:24.052Z,100413.56
2023-06-07T01:36:26.922Z,100412.34
2023-06-07T01:41:30.578Z,100404.50
2023-06-07T01:46:34.954Z,100403.56
2023-06-07T01:51:36.510Z,100393.13
2023-06-07T01:57:06.074Z,100390.88
2023-06-07T02:02:16.846Z,100380.66
2023-06-07T02:07:24.917Z,100386.72
2023-06-07T02:12:27.906Z,100382.69
2023-06-07T02:17:30.003Z,100377.22
2023-06-07T02:22:31.702Z,100380.69
2023-06-07T02:27:33.118Z,100372.63
2023-06-07T02:32:34.786Z,100373.31
2023-06-07T02:37:36.652Z,100370.22
2023-06-07T02:42:38.242Z,100369.75
2023-06-07T02:47:40.052Z,100374.22
2023-06-07T02:52:42.735Z,100377.31
2023-06-07T02:57:44.254Z,100382.66
2023-06-07T03:02:45.931Z,100369.41
2023-06-07T03:07:47.544Z,100375.22
2023-06-07T03:12:48.981Z,100378.97
2023-06-07T03:17:50.867Z,100380.31
2023-06-07T03:22:52.385Z,100373.81
2023-06-07T03:27:53.789Z,100382.56
2023-06-07T03:32:55.483Z,100386.00
2023-06-07T03:37:56.947Z,100387.09
2023-06-07T03:43:00.528Z,100388.63
2023-06-07T03:48:02.143Z,100392.53
2023-06-07T03:53:03.703Z,100395.13
2023-06-07T03:58:06.127Z,100397.88
2023-06-07T04:03:08.596Z,100398.34
2023-06-07T04:08:10.998Z,100390.41
2023-06-07T04:13:12.618Z,100396.22
2023-06-07T04:18:14.125Z,100397.88
2023-06-07T04:23:16.158Z,100394.19
2023-06-07T04:28:17.867Z,100394.31
2023-06-07T04:33:20.143Z,100390.88
2023-06-07T04:38:23.494Z,100401.09
2023-06-07T04:43:25.111Z,100401.19
2023-06-07T04:48:30.114Z,100391.94
2023-06-07T04:53:37.350Z,100391.09
2023-06-07T04:58:41.347Z,100400.94
2023-06-07T05:03:43.830Z,100398.09
2023-06-07T05:08:46.233Z,100407.38
2023-06-07T05:13:50.273Z,100411.63
2023-06-07T05:18:51.794Z,100403.66
2023-06-07T05:23:53.222Z,100400.06
2023-06-07T05:28:54.696Z,100403.63
2023-06-07T05:33:56.175Z,100402.19
2023-06-07T05:38:57.681Z,100403.31
2023-06-07T05:43:59.117Z,100405.44
2023-06-07T05:49:00.539Z,100405.91
2023-06-07T05:54:02.731Z,100412.13
2023-06-07T05:59:04.247Z,100411.91
2023-06-07T06:04:05.753Z,100410.28
2023-06-07T06:09:07.436Z,100413.00
2023-06-07T06:14:08.886Z,100409.22
2023-06-07T06:19:10.623Z,100414.69
2023-06-07T06:24:12.198Z,100417.41
2023-06-07T06:29:13.701Z,100418.78
2023-06-07T06:34:15.121Z,100419.41
2023-06-07T06:39:16.767Z,100415.06
2023-06-07T06:44:18.247Z,100420.50
2023-06-07T06:49:19.739Z,100429.06
2023-06-07T06:54:22.104Z,100428.06
2023-06-07T06:59:23.497Z,100429.16
2023-06-07T07:04:24.910Z,100432.22
2023-06-07T07:09:26.422Z,100440.06
2023-06-07T07:14:27.964Z,100436.69
2023-06-07T07:19:29.542Z,100434.25
2023-06-07T07:24:31.122Z,100427.84
2023-06-07T07:29:33.173Z,100417.97
2023-06-07T07:34:34.622Z,100425.59
2023-06-07T07:39:37.093Z,100431.72
2023-06-07T07:44:38.788Z,100430.59
2023-06-07T07:49:40.192Z,100433.09
2023-06-07T07:54:41.653Z,100434.00
2023-06-07T07:59:43.123Z,100437.38
2023-06-07T08:04:44.628Z,100428.41
2023-06-07T08:09:46.068Z,100427.50
2023-06-07T08:14:47.514Z,100424.56
2023-06-07T08:19:49.128Z,100420.19
2023-06-07T08:24:50.546Z,100418.63
2023-06-07T08:29:51.950Z,100428.53
2023-06-07T08:34:53.510Z,100422.50
2023-06-07T08:39:55.058Z,100422.56
2023-06-07T08:44:56.439Z,100416.00
2023-06-07T08:49:58.623Z,100415.19
2023-06-07T08:55:04.775Z,100417.75
2023-06-07T09:00:08.930Z,100422.41
2023-06-07T09:05:10.633Z,100423.81
2023-06-07T09:10:14.260Z,100420.19
2023-06-07T09:15:22.489Z,100411.41
2023-06-07T09:20:25.781Z,100412.13
2023-06-07T09:25:31.437Z,100418.25
2023-06-07T09:30:32.919Z,100424.75
2023-06-07T09:35:34.309Z,100417.34
2023-06-07T09:40:35.765Z,100417.97
2023-06-07T09:45:37.324Z,100424.66
2023-06-07T09:50:38.945Z,100429.13
2023-06-07T09:55:40.471Z,100428.72
2023-06-07T10:00:43.666Z,100425.59
2023-06-07T10:05:45.091Z,100423.75
2023-06-07T10:10:49.557Z,100418.63
2023-06-07T10:15:52.344Z,100414.66
2023-06-07T10:20:59.055Z,100407.88
2023-06-07T10:26:05.693Z,100410.72
2023-06-07T10:31:12.022Z,100399.66
2023-06-07T10:36:14.866Z,100397.63
2023-06-07T10:41:16.590Z,100396.72
2023-06-07T10:46:24.492Z,100390.31
2023-06-07T10:51:52.925Z,100381.50
2023-06-07T10:56:54.527Z,100382.97
2023-06-07T11:02:25.577Z,100381.34
2023-06-07T11:07:29.771Z,100390.69
2023-06-07T11:12:44.918Z,100382.91
2023-06-07T11:18:01.373Z,100373.19
2023-06-07T11:23:28.927Z,100374.91
2023-06-07T11:28:34.167Z,100378.25
2023-06-07T11:33:36.423Z,100371.38
2023-06-07T11:38:39.080Z,100377.19
2023-06-07T11:43:41.101Z,100368.00
2023-06-07T11:48:42.597Z,100368.28
2023-06-07T11:53:44.113Z,100368.91
2023-06-07T11:58:45.574Z,100366.25
2023-06-07T12:03:48.465Z,100357.31
2023-06-07T12:08:52.833Z,100350.94
2023-06-07T12:13:55.003Z,100351.94
2023-06-07T12:18:57.103Z,100348.84
2023-06-07T12:24:01.722Z,100341.88
2023-06-07T12:29:03.593Z,100340.75
2023-06-07T12:34:06.991Z,100330.16
2023-06-07T12:39:10.968Z,100317.78
2023-06-07T12:44:12.863Z,100319.09
2023-06-07T12:49:14.465Z,100317.97
2023-06-07T12:54:16.055Z,100313.53
2023-06-07T12:59:17.723Z,100308.34
2023-06-07T13:04:19.160Z,100300.28
2023-06-07T13:09:21.147Z,100304.03
2023-06-07T13:14:22.816Z,100294.38
2023-06-07T13:19:24.235Z,100293.78
2023-06-07T13:24:25.800Z,100289.88
2023-06-07T13:29:27.233Z,100278.44
2023-06-07T13:34:28.708Z,100279.16
2023-06-07T13:39:30.288Z,100272.97
2023-06-07T13:44:31.723Z,100272.09
2023-06-07T13:49:33.333Z,100270.00
2023-06-07T13:54:35.163Z,100269.34
2023-06-07T13:59:36.556Z,100264.25
2023-06-07T14:04:38.260Z,100263.28
2023-06-07T14:09:39.859Z,100261.16
2023-06-07T14:14:41.947Z,100263.28
2023-06-07T14:19:44.057Z,100243.81
2023-06-07T14:24:45.535Z,100240.66
2023-06-07T14:29:46.964Z,100251.19
2023-06-07T14:34:48.359Z,100232.16
2023-06-07T14:39:49.774Z,100231.94
2023-06-07T14:44:56.920Z,100229.91
2023-06-07T14:49:58.473Z,100242.00
2023-06-07T14:54:59.902Z,100226.13
2023-06-07T15:00:06.753Z,100231.38
2023-06-07T15:05:09.199Z,100230.22
2023-06-07T15:10:10.815Z,100227.38
2023-06-07T15:15:12.348Z,100222.81
2023-06-07T15:20:13.760Z,100215.50
2023-06-07T15:25:15.194Z,100223.00
2023-06-07T15:30:16.725Z,100218.72
2023-06-07T15:35:18.265Z,100210.63
2023-06-07T15:40:19.655Z,100220.50
2023-06-07T15:45:21.093Z,100215.88
2023-06-07T15:50:22.517Z,100207.50
2023-06-07T15:55:24.651Z,100217.47
2023-06-07T16:00:37.009Z,100208.56
2023-06-07T16:05:40.462Z,100206.84
2023-06-07T16:10:41.872Z,100208.44
2023-06-07T16:15:43.436Z,100199.50
2023-06-07T16:20:46.027Z,100205.66
2023-06-07T16:25:49.749Z,100197.44
2023-06-07T16:30:51.466Z,100185.94
2023-06-07T16:35:53.052Z,100184.75
2023-06-07T16:40:54.428Z,100186.59
2023-06-07T16:45:55.891Z,100184.66
2023-06-07T16:50:57.282Z,100173.09
2023-06-07T16:55:58.694Z,100168.59
2023-06-07T17:01:00.740Z,100167.19
2023-06-07T17:06:02.126Z,100165.00
2023-06-07T17:11:06.218Z,100160.63
2023-06-07T17:16:07.618Z,100161.00
2023-06-07T17:21:09.136Z,100163.84
2023-06-07T17:26:10.624Z,100171.28
2023-06-07T17:31:12.017Z,100180.16
2023-06-07T17:36:13.401Z,100172.72
2023-06-07T17:41:14.784Z,100189.84
2023-06-07T17:46:16.224Z,100180.06
2023-06-07T17:51:18.958Z,100178.88
2023-06-07T17:56:20.469Z,100179.25
2023-06-07T18:01:23.311Z,100168.50
2023-06-07T18:06:25.856Z,100169.97
2023-06-07T18:11:27.850Z,100175.06
2023-06-07T18:16:29.953Z,100168.78
2023-06-07T18:21:31.385Z,100177.97
2023-06-07T18:26:32.766Z,100183.63
2023-06-07T18:31:34.234Z,100176.38
2023-06-07T18:36:36.397Z,100196.78
2023-06-07T18:41:37.803Z,100180.50
2023-06-07T18:46:40.106Z,100183.75
2023-06-07T18:51:41.569Z,100191.38
2023-06-07T18:56:42.933Z,100190.44
2023-06-07T19:01:51.982Z,100185.56
2023-06-07T19:06:55.019Z,100190.63
2023-06-07T19:11:56.765Z,100189.41
2023-06-07T19:16:58.707Z,100192.44
2023-06-07T19:22:00.250Z,100196.91
2023-06-07T19:27:01.669Z,100197.53
2023-06-07T19:32:04.215Z,100202.78
2023-06-07T19:37:06.144Z,100202.50
2023-06-07T19:42:10.058Z,100205.81
2023-06-07T19:47:11.637Z,100207.47
2023-06-07T19:52:13.171Z,100204.16
2023-06-07T19:57:14.726Z,100212.63
2023-06-07T20:02:16.863Z,100214.25
2023-06-07T20:07:18.356Z,100208.19
2023-06-07T20:12:19.808Z,100204.59
2023-06-07T20:17:26.648Z,100211.44
2023-06-07T20:22:31.322Z,100223.53
2023-06-07T20:27:32.690Z,100228.16
2023-06-07T20:32:34.176Z,100238.63
2023-06-07T20:37:35.621Z,100241.94
2023-06-07T20:42:37.044Z,100239.75
2023-06-07T20:47:38.525Z,100230.41
2023-06-07T20:52:40.038Z,100228.97
2023-06-07T20:57:41.509Z,100223.75
2023-06-07T21:02:43.077Z,100237.75
2023-06-07T21:07:44.501Z,100240.44
2023-06-07T21:12:45.934Z,100245.69
2023-06-07T21:17:47.365Z,100249.06
2023-06-07T21:22:48.825Z,100260.91
2023-06-07T21:27:50.323Z,100258.81
2023-06-07T21:32:51.725Z,100262.53
2023-06-07T21:37:53.161Z,100266.03
2023-06-07T21:42:54.775Z,100270.38
2023-06-07T21:47:56.304Z,100278.00
2023-06-07T21:52:58.205Z,100271.69
2023-06-07T21:57:59.675Z,100271.56
2023-06-07T22:03:01.200Z,100268.75
2023-06-07T22:08:02.639Z,100265.28
2023-06-07T22:13:04.051Z,100268.13
2023-06-07T22:18:05.828Z,100266.47
2023-06-07T22:23:08.462Z,100256.91
2023-06-07T22:28:10.796Z,100253.19
2023-06-07T22:33:12.599Z,100249.25
2023-06-07T22:38:14.138Z,100248.19
2023-06-07T22:43:15.647Z,100239.91
2023-06-07T22:48:19.761Z,100239.78
2023-06-07T22:53:21.301Z,100233.41
2023-06-07T22:58:22.864Z,100240.09
2023-06-07T23:03:24.418Z,100237.13
2023-06-07T23:08:26.864Z,100236.44
2023-06-07T23:13:28.250Z,100235.63
2023-06-07T23:18:31.402Z,100229.06
2023-06-07T23:23:33.752Z,100230.97
2023-06-07T23:28:35.577Z,100230.88
2023-06-07T23:33:37.827Z,100226.13
2023-06-07T23:38:39.182Z,100227.09
2023-06-07T23:43:40.653Z,100228.63
2023-06-07T23:48:42.290Z,100223.75
2023-06-07T23:53:43.664Z,100221.66
2023-06-07T23:58:45.243Z,100223.06
